createdAt,value
2023-02-28T00:00:05.750Z,69.09
2023-02-28T00:00:15.645Z,69.09
2023-02-28T00:00:25.701Z,69.09
2023-02-28T00:00:35.752Z,69.09
2023-02-28T00:00:45.791Z,69.09
2023-02-28T00:00:55.852Z,69.09
2023-02-28T00:01:05.912Z,69.09
2023-02-28T00:01:15.961Z,69.09
2023-02-28T00:01:26.283Z,69.09
2023-02-28T00:01:36.120Z,69.09
2023-02-28T00:01:46.202Z,69.09
2023-02-28T00:01:56.270Z,69.09
2023-02-28T00:02:06.335Z,69.09
2023-02-28T00:02:16.394Z,69.09
2023-02-28T00:02:26.481Z,69.09
2023-02-28T00:02:36.522Z,69.09
2023-02-28T00:02:46.573Z,69.09
2023-02-28T00:02:56.697Z,68.99
2023-02-28T00:03:06.790Z,68.99
2023-02-28T00:03:16.885Z,68.99
2023-02-28T00:03:26.888Z,68.99
2023-02-28T00:03:36.964Z,68.99
2023-02-28T00:03:47.042Z,68.99
2023-02-28T00:03:57.103Z,68.99
2023-02-28T00:04:07.150Z,68.99
2023-02-28T00:04:17.235Z,68.99
2023-02-28T00:04:27.322Z,68.99
2023-02-28T00:04:37.358Z,68.99
2023-02-28T00:04:47.423Z,68.88
2023-02-28T00:04:57.523Z,68.88
2023-02-28T00:05:07.595Z,68.88
2023-02-28T00:05:17.650Z,68.78
2023-02-28T00:05:27.701Z,68.78
2023-02-28T00:05:37.746Z,68.68
2023-02-28T00:05:47.792Z,68.57
2023-02-28T00:05:57.843Z,68.57
2023-02-28T00:06:07.886Z,68.57
2023-02-28T00:06:17.964Z,68.57
2023-02-28T00:06:28.030Z,68.57
2023-02-28T00:06:38.079Z,68.68
2023-02-28T00:06:48.153Z,68.57
2023-02-28T00:06:58.199Z,68.68
2023-02-28T00:07:08.252Z,68.68
2023-02-28T00:07:18.312Z,68.68
2023-02-28T00:07:28.389Z,68.68
2023-02-28T00:07:38.424Z,68.68
2023-02-28T00:07:48.475Z,68.68
2023-02-28T00:07:58.543Z,68.68
2023-02-28T00:08:08.591Z,68.68
2023-02-28T00:08:18.651Z,68.68
2023-02-28T00:08:28.750Z,68.68
2023-02-28T00:08:38.803Z,68.68
2023-02-28T00:08:48.857Z,68.78
2023-02-28T00:08:58.911Z,68.78
2023-02-28T00:09:08.945Z,68.78
2023-02-28T00:09:18.997Z,68.78
2023-02-28T00:09:29.048Z,68.88
2023-02-28T00:09:39.093Z,68.88
2023-02-28T00:09:49.143Z,68.99
2023-02-28T00:09:59.191Z,68.99
2023-02-28T00:10:09.246Z,68.99
2023-02-28T00:10:19.281Z,68.99
2023-02-28T00:10:29.333Z,69.09
2023-02-28T00:10:39.393Z,69.09
2023-02-28T00:10:49.431Z,69.09
2023-02-28T00:10:59.479Z,69.09
2023-02-28T00:11:09.518Z,69.09
2023-02-28T00:11:19.574Z,69.09
2023-02-28T00:11:29.898Z,69.09
2023-02-28T00:11:39.781Z,69.09
2023-02-28T00:11:49.845Z,69.09
2023-02-28T00:11:59.902Z,69.09
2023-02-28T00:12:09.942Z,69.09
2023-02-28T00:12:20.002Z,69.20
2023-02-28T00:12:30.075Z,69.20
2023-02-28T00:12:40.092Z,69.20
2023-02-28T00:12:50.155Z,69.20
2023-02-28T00:13:00.262Z,69.20
2023-02-28T00:13:10.321Z,69.20
2023-02-28T00:13:20.387Z,69.30
2023-02-28T00:13:30.437Z,69.33
2023-02-28T00:13:40.499Z,69.30
2023-02-28T00:13:50.538Z,69.30
2023-02-28T00:14:00.639Z,69.30
2023-02-28T00:14:10.672Z,69.33
2023-02-28T00:14:20.723Z,69.30
2023-02-28T00:14:30.782Z,69.33
2023-02-28T00:14:40.880Z,69.30
2023-02-28T00:14:50.930Z,69.33
2023-02-28T00:15:00.993Z,69.33
2023-02-28T00:15:11.056Z,69.33
2023-02-28T00:15:21.182Z,69.30
2023-02-28T00:15:31.251Z,69.33
2023-02-28T00:15:41.301Z,69.33
2023-02-28T00:15:51.342Z,69.33
2023-02-28T00:16:01.389Z,69.33
2023-02-28T00:16:11.491Z,69.33
2023-02-28T00:16:21.656Z,69.43
2023-02-28T00:16:31.767Z,69.43
2023-02-28T00:16:41.935Z,69.40
2023-02-28T00:16:52.061Z,69.43
2023-02-28T00:17:02.137Z,69.40
2023-02-28T00:17:12.189Z,69.40
2023-02-28T00:17:22.246Z,69.40
2023-02-28T00:17:32.272Z,69.40
2023-02-28T00:17:42.317Z,69.40
2023-02-28T00:17:52.394Z,69.40
2023-02-28T00:18:02.493Z,69.51
2023-02-28T00:18:12.513Z,69.51
2023-02-28T00:18:22.550Z,69.40
2023-02-28T00:18:32.591Z,69.40
2023-02-28T00:18:42.642Z,69.40
2023-02-28T00:18:52.698Z,69.40
2023-02-28T00:19:02.730Z,69.30
2023-02-28T00:19:12.772Z,69.30
2023-02-28T00:19:22.894Z,69.30
2023-02-28T00:19:32.934Z,69.30
2023-02-28T00:19:43.082Z,69.30
2023-02-28T00:19:53.113Z,69.30
2023-02-28T00:20:03.166Z,69.30
2023-02-28T00:20:13.199Z,69.30
2023-02-28T00:20:23.322Z,69.30
2023-02-28T00:20:33.353Z,69.20
2023-02-28T00:20:43.471Z,69.30
2023-02-28T00:20:53.509Z,69.30
2023-02-28T00:21:03.568Z,69.30
2023-02-28T00:21:13.601Z,69.30
2023-02-28T00:21:23.656Z,69.20
2023-02-28T00:21:33.714Z,69.20
2023-02-28T00:21:43.781Z,69.20
2023-02-28T00:21:53.842Z,69.20
2023-02-28T00:22:03.871Z,69.20
2023-02-28T00:22:13.928Z,69.20
2023-02-28T00:22:23.961Z,69.20
2023-02-28T00:22:34.013Z,69.30
2023-02-28T00:22:44.041Z,69.30
2023-02-28T00:22:54.093Z,69.30
2023-02-28T00:23:04.131Z,69.30
2023-02-28T00:23:14.191Z,69.30
2023-02-28T00:23:24.223Z,69.30
2023-02-28T00:23:34.312Z,69.30
2023-02-28T00:23:44.362Z,69.30
2023-02-28T00:23:54.411Z,69.30
2023-02-28T00:24:04.459Z,69.30
2023-02-28T00:24:14.497Z,69.30
2023-02-28T00:24:24.521Z,69.30
2023-02-28T00:24:34.572Z,69.30
2023-02-28T00:24:44.642Z,69.30
2023-02-28T00:24:54.679Z,69.30
2023-02-28T00:25:04.758Z,69.30
2023-02-28T00:25:14.790Z,69.30
2023-02-28T00:25:24.826Z,69.30
2023-02-28T00:25:34.881Z,69.30
2023-02-28T00:25:44.929Z,69.30
2023-02-28T00:25:54.962Z,69.30
2023-02-28T00:26:04.999Z,69.30
2023-02-28T00:26:15.050Z,69.30
2023-02-28T00:26:25.140Z,69.30
2023-02-28T00:26:35.198Z,69.30
2023-02-28T00:26:45.249Z,69.20
2023-02-28T00:26:55.306Z,69.20
2023-02-28T00:27:05.411Z,69.20
2023-02-28T00:27:15.521Z,69.20
2023-02-28T00:27:25.565Z,69.20
2023-02-28T00:27:35.601Z,69.20
2023-02-28T00:27:45.727Z,69.20
2023-02-28T00:27:55.797Z,69.20
2023-02-28T00:28:05.844Z,69.20
2023-02-28T00:28:15.890Z,69.30
2023-02-28T00:28:25.946Z,69.30
2023-02-28T00:28:35.985Z,69.30
2023-02-28T00:28:46.051Z,69.30
2023-02-28T00:28:56.073Z,69.30
2023-02-28T00:29:06.111Z,69.40
2023-02-28T00:29:16.149Z,69.40
2023-02-28T00:29:26.193Z,69.40
2023-02-28T00:29:36.230Z,69.40
2023-02-28T00:29:46.269Z,69.40
2023-02-28T00:29:56.308Z,69.40
2023-02-28T00:30:06.377Z,69.40
2023-02-28T00:30:16.419Z,69.40
2023-02-28T00:30:26.493Z,69.40
2023-02-28T00:30:36.486Z,69.40
2023-02-28T00:30:46.508Z,69.40
2023-02-28T00:30:56.611Z,69.40
2023-02-28T00:31:06.740Z,69.54
2023-02-28T00:31:16.806Z,69.40
2023-02-28T00:31:27.055Z,69.51
2023-02-28T00:31:36.826Z,69.51
2023-02-28T00:31:46.873Z,69.51
2023-02-28T00:31:56.934Z,69.51
2023-02-28T00:32:06.982Z,69.51
2023-02-28T00:32:17.005Z,69.51
2023-02-28T00:32:27.009Z,69.51
2023-02-28T00:32:37.036Z,69.51
2023-02-28T00:32:47.048Z,69.51
2023-02-28T00:32:57.075Z,69.40
2023-02-28T00:33:07.087Z,69.43
2023-02-28T00:33:17.106Z,69.43
2023-02-28T00:33:27.120Z,69.43
2023-02-28T00:33:37.204Z,69.43
2023-02-28T00:33:47.242Z,69.43
2023-02-28T00:33:57.232Z,69.43
2023-02-28T00:34:07.257Z,69.54
2023-02-28T00:34:17.267Z,69.54
2023-02-28T00:34:27.288Z,69.54
2023-02-28T00:34:37.338Z,69.54
2023-02-28T00:34:47.378Z,69.54
2023-02-28T00:34:57.388Z,69.54
2023-02-28T00:35:07.408Z,69.54
2023-02-28T00:35:17.411Z,69.64
2023-02-28T00:35:27.539Z,69.64
2023-02-28T00:35:37.572Z,69.64
2023-02-28T00:35:47.649Z,69.64
2023-02-28T00:35:57.734Z,69.74
2023-02-28T00:36:07.739Z,69.74
2023-02-28T00:36:17.757Z,69.74
2023-02-28T00:36:27.769Z,69.74
2023-02-28T00:36:37.804Z,69.74
2023-02-28T00:36:47.821Z,69.74
2023-02-28T00:36:57.896Z,69.74
2023-02-28T00:37:07.938Z,69.74
2023-02-28T00:37:17.979Z,69.74
2023-02-28T00:37:27.997Z,69.74
2023-02-28T00:37:38.008Z,69.74
2023-02-28T00:37:48.016Z,69.74
2023-02-28T00:37:58.067Z,69.74
2023-02-28T00:38:08.065Z,69.74
2023-02-28T00:38:18.080Z,69.74
2023-02-28T00:38:28.097Z,69.71
2023-02-28T00:38:38.109Z,69.74
2023-02-28T00:38:48.119Z,69.74
2023-02-28T00:38:58.137Z,69.74
2023-02-28T00:39:08.135Z,69.74
2023-02-28T00:39:18.166Z,69.74
2023-02-28T00:39:28.175Z,69.74
2023-02-28T00:39:38.234Z,69.71
2023-02-28T00:39:48.228Z,69.71
2023-02-28T00:39:58.235Z,69.71
2023-02-28T00:40:08.314Z,69.74
2023-02-28T00:40:18.325Z,69.74
2023-02-28T00:40:28.326Z,69.74
2023-02-28T00:40:38.344Z,69.71
2023-02-28T00:40:48.376Z,69.71
2023-02-28T00:40:58.388Z,69.71
2023-02-28T00:41:08.477Z,69.71
2023-02-28T00:41:18.512Z,69.71
2023-02-28T00:41:28.758Z,69.71
2023-02-28T00:41:38.665Z,69.71
2023-02-28T00:41:48.688Z,69.71
2023-02-28T00:41:58.705Z,69.74
2023-02-28T00:42:08.729Z,69.71
2023-02-28T00:42:18.753Z,69.71
2023-02-28T00:42:28.761Z,69.71
2023-02-28T00:42:38.764Z,69.71
2023-02-28T00:42:48.788Z,69.71
2023-02-28T00:42:58.823Z,69.71
2023-02-28T00:43:08.827Z,69.74
2023-02-28T00:43:18.855Z,69.82
2023-02-28T00:43:28.879Z,69.71
2023-02-28T00:43:38.895Z,69.74
2023-02-28T00:43:48.922Z,69.74
2023-02-28T00:43:58.937Z,69.74
2023-02-28T00:44:08.963Z,69.85
2023-02-28T00:44:18.996Z,69.85
2023-02-28T00:44:29.064Z,69.85
2023-02-28T00:44:39.087Z,69.96
2023-02-28T00:44:49.105Z,69.96
2023-02-28T00:44:59.125Z,69.96
2023-02-28T00:45:09.161Z,69.96
2023-02-28T00:45:19.203Z,69.96
2023-02-28T00:45:29.225Z,70.06
2023-02-28T00:45:39.252Z,70.06
2023-02-28T00:45:49.267Z,70.06
2023-02-28T00:45:59.323Z,70.06
2023-02-28T00:46:09.377Z,70.06
2023-02-28T00:46:19.443Z,70.06
2023-02-28T00:46:29.681Z,70.06
2023-02-28T00:46:39.693Z,70.06
2023-02-28T00:46:49.723Z,70.06
2023-02-28T00:46:59.735Z,70.06
2023-02-28T00:47:09.754Z,70.06
2023-02-28T00:47:19.784Z,70.17
2023-02-28T00:47:29.921Z,70.17
2023-02-28T00:47:39.991Z,70.17
2023-02-28T00:47:50.113Z,70.17
2023-02-28T00:48:00.219Z,70.27
2023-02-28T00:48:10.362Z,70.27
2023-02-28T00:48:20.361Z,70.27
2023-02-28T00:48:30.385Z,70.27
2023-02-28T00:48:40.431Z,70.27
2023-02-28T00:48:50.474Z,70.27
2023-02-28T00:49:00.530Z,70.37
2023-02-28T00:49:10.554Z,70.37
2023-02-28T00:49:20.603Z,70.27
2023-02-28T00:49:30.616Z,70.27
2023-02-28T00:49:40.664Z,70.27
2023-02-28T00:49:50.714Z,70.27
2023-02-28T00:50:00.753Z,70.27
2023-02-28T00:50:10.854Z,70.37
2023-02-28T00:50:20.954Z,70.37
2023-02-28T00:50:31.097Z,70.37
2023-02-28T00:50:41.123Z,70.37
2023-02-28T00:50:51.180Z,70.37
2023-02-28T00:51:01.286Z,70.37
2023-02-28T00:51:11.354Z,70.37
2023-02-28T00:51:21.387Z,70.37
2023-02-28T00:51:31.452Z,70.27
2023-02-28T00:51:41.517Z,70.27
2023-02-28T00:51:51.598Z,70.27
2023-02-28T00:52:01.627Z,70.17
2023-02-28T00:52:11.683Z,70.17
2023-02-28T00:52:21.731Z,70.17
2023-02-28T00:52:31.776Z,70.06
2023-02-28T00:52:41.844Z,70.06
2023-02-28T00:52:51.890Z,70.06
2023-02-28T00:53:01.946Z,70.06
2023-02-28T00:53:12.004Z,70.06
2023-02-28T00:53:22.052Z,70.06
2023-02-28T00:53:32.094Z,70.06
2023-02-28T00:53:42.143Z,70.06
2023-02-28T00:53:52.217Z,70.06
2023-02-28T00:54:02.379Z,70.06
2023-02-28T00:54:12.421Z,69.96
2023-02-28T00:54:22.462Z,70.06
2023-02-28T00:54:32.523Z,70.06
2023-02-28T00:54:42.561Z,70.06
2023-02-28T00:54:52.613Z,70.06
2023-02-28T00:55:02.654Z,70.06
2023-02-28T00:55:12.722Z,70.06
2023-02-28T00:55:22.762Z,70.17
2023-02-28T00:55:32.810Z,70.17
2023-02-28T00:55:42.873Z,70.06
2023-02-28T00:55:52.925Z,70.17
2023-02-28T00:56:02.973Z,70.17
2023-02-28T00:56:13.035Z,70.17
2023-02-28T00:56:23.083Z,70.06
2023-02-28T00:56:33.140Z,70.06
2023-02-28T00:56:43.176Z,70.06
2023-02-28T00:56:53.223Z,70.06
2023-02-28T00:57:03.350Z,70.06
2023-02-28T00:57:13.402Z,70.06
2023-02-28T00:57:23.462Z,70.06
2023-02-28T00:57:33.499Z,70.06
2023-02-28T00:57:43.552Z,70.06
2023-02-28T00:57:53.607Z,70.06
2023-02-28T00:58:03.680Z,70.06
2023-02-28T00:58:13.711Z,70.06
2023-02-28T00:58:23.768Z,70.06
2023-02-28T00:58:33.820Z,70.06
2023-02-28T00:58:43.953Z,70.06
2023-02-28T00:58:54.001Z,70.06
2023-02-28T00:59:04.051Z,70.06
2023-02-28T00:59:14.103Z,70.06
2023-02-28T00:59:24.151Z,70.06
2023-02-28T00:59:34.194Z,70.06
2023-02-28T00:59:44.250Z,70.17
2023-02-28T00:59:54.345Z,70.17
2023-02-28T01:00:04.399Z,70.17
2023-02-28T01:00:14.450Z,70.17
2023-02-28T01:00:24.494Z,70.17
2023-02-28T01:00:34.522Z,70.17
2023-02-28T01:00:44.582Z,70.17
2023-02-28T01:00:54.651Z,70.17
2023-02-28T01:01:04.817Z,70.17
2023-02-28T01:01:14.944Z,70.17
2023-02-28T01:01:25.024Z,70.17
2023-02-28T01:01:35.100Z,70.17
2023-02-28T01:01:45.179Z,70.17
2023-02-28T01:01:55.227Z,70.17
2023-02-28T01:02:05.301Z,70.17
2023-02-28T01:02:15.347Z,70.17
2023-02-28T01:02:25.411Z,70.17
2023-02-28T01:02:35.472Z,70.17
2023-02-28T01:02:45.513Z,70.17
2023-02-28T01:02:55.561Z,70.27
2023-02-28T01:03:05.615Z,70.27
2023-02-28T01:03:15.672Z,70.27
2023-02-28T01:03:25.780Z,70.37
2023-02-28T01:03:35.827Z,70.37
2023-02-28T01:03:45.883Z,70.37
2023-02-28T01:03:55.941Z,70.37
2023-02-28T01:04:06.033Z,70.27
2023-02-28T01:04:16.096Z,70.37
2023-02-28T01:04:26.177Z,70.37
2023-02-28T01:04:36.261Z,70.37
2023-02-28T01:04:46.414Z,70.37
2023-02-28T01:04:56.442Z,70.37
2023-02-28T01:05:06.494Z,70.48
2023-02-28T01:05:16.538Z,70.48
2023-02-28T01:05:26.571Z,70.48
2023-02-28T01:05:36.609Z,70.48
2023-02-28T01:05:46.651Z,70.48
2023-02-28T01:05:56.699Z,70.48
2023-02-28T01:06:06.754Z,70.58
2023-02-28T01:06:16.801Z,70.58
2023-02-28T01:06:26.842Z,70.58
2023-02-28T01:06:36.910Z,70.58
2023-02-28T01:06:46.942Z,70.58
2023-02-28T01:06:57.023Z,70.68
2023-02-28T01:07:07.075Z,70.68
2023-02-28T01:07:17.139Z,70.68
2023-02-28T01:07:27.312Z,70.68
2023-02-28T01:07:37.375Z,70.68
2023-02-28T01:07:47.414Z,70.68
2023-02-28T01:07:57.489Z,70.68
2023-02-28T01:08:07.524Z,70.68
2023-02-28T01:08:17.576Z,70.68
2023-02-28T01:08:27.618Z,70.68
2023-02-28T01:08:37.669Z,70.68
2023-02-28T01:08:47.714Z,70.79
2023-02-28T01:08:57.764Z,70.79
2023-02-28T01:09:07.799Z,70.79
2023-02-28T01:09:17.862Z,70.79
2023-02-28T01:09:27.910Z,70.79
2023-02-28T01:09:37.966Z,70.79
2023-02-28T01:09:47.991Z,70.79
2023-02-28T01:09:58.057Z,70.79
2023-02-28T01:10:08.088Z,70.79
2023-02-28T01:10:18.136Z,70.79
2023-02-28T01:10:28.181Z,70.79
2023-02-28T01:10:38.221Z,70.89
2023-02-28T01:10:48.271Z,70.92
2023-02-28T01:10:58.290Z,70.89
2023-02-28T01:11:08.330Z,70.89
2023-02-28T01:11:18.367Z,70.89
2023-02-28T01:11:28.722Z,70.89
2023-02-28T01:11:38.527Z,70.89
2023-02-28T01:11:48.561Z,70.89
2023-02-28T01:11:58.620Z,70.89
2023-02-28T01:12:08.785Z,70.89
2023-02-28T01:12:18.834Z,70.79
2023-02-28T01:12:30.820Z,70.82
2023-02-28T01:12:39.162Z,70.79
2023-02-28T01:12:49.271Z,70.79
2023-02-28T01:12:59.320Z,70.79
2023-02-28T01:13:09.353Z,70.79
2023-02-28T01:13:19.400Z,70.79
2023-02-28T01:13:29.421Z,70.89
2023-02-28T01:13:39.510Z,70.79
2023-02-28T01:13:49.551Z,70.79
2023-02-28T01:13:59.590Z,70.79
2023-02-28T01:14:09.633Z,70.79
2023-02-28T01:14:19.681Z,70.79
2023-02-28T01:14:29.721Z,70.79
2023-02-28T01:14:39.769Z,70.79
2023-02-28T01:14:49.819Z,70.79
2023-02-28T01:14:59.851Z,70.79
2023-02-28T01:15:09.890Z,70.68
2023-02-28T01:15:19.934Z,70.68
2023-02-28T01:15:30.005Z,70.68
2023-02-28T01:15:40.134Z,70.68
2023-02-28T01:15:50.229Z,70.68
2023-02-28T01:16:00.327Z,70.68
2023-02-28T01:16:10.416Z,70.68
2023-02-28T01:16:20.462Z,70.68
2023-02-28T01:16:30.491Z,70.68
2023-02-28T01:16:40.529Z,70.68
2023-02-28T01:16:50.575Z,70.68
2023-02-28T01:17:00.665Z,70.68
2023-02-28T01:17:10.701Z,70.68
2023-02-28T01:17:20.739Z,70.68
2023-02-28T01:17:30.793Z,70.68
2023-02-28T01:17:40.918Z,70.68
2023-02-28T01:17:51.001Z,70.68
2023-02-28T01:18:01.063Z,70.79
2023-02-28T01:18:11.100Z,70.79
2023-02-28T01:18:21.151Z,70.68
2023-02-28T01:18:31.180Z,70.68
2023-02-28T01:18:41.248Z,70.68
2023-02-28T01:18:51.289Z,70.68
2023-02-28T01:19:01.321Z,70.68
2023-02-28T01:19:11.371Z,70.68
2023-02-28T01:19:21.444Z,70.68
2023-02-28T01:19:31.479Z,70.68
2023-02-28T01:19:41.530Z,70.68
2023-02-28T01:19:51.578Z,70.68
2023-02-28T01:20:01.637Z,70.58
2023-02-28T01:20:11.706Z,70.58
2023-02-28T01:20:21.777Z,70.58
2023-02-28T01:20:31.821Z,70.58
2023-02-28T01:20:41.883Z,70.58
2023-02-28T01:20:51.950Z,70.58
2023-02-28T01:21:02.010Z,70.58
2023-02-28T01:21:12.066Z,70.58
2023-02-28T01:21:22.103Z,70.58
2023-02-28T01:21:32.150Z,70.58
2023-02-28T01:21:42.190Z,70.48
2023-02-28T01:21:52.264Z,70.48
2023-02-28T01:22:02.331Z,70.48
2023-02-28T01:22:12.391Z,70.48
2023-02-28T01:22:22.439Z,70.48
2023-02-28T01:22:32.472Z,70.48
2023-02-28T01:22:42.531Z,70.48
2023-02-28T01:22:52.597Z,70.58
2023-02-28T01:23:02.679Z,70.58
2023-02-28T01:23:12.736Z,70.58
2023-02-28T01:23:22.804Z,70.58
2023-02-28T01:23:32.830Z,70.58
2023-02-28T01:23:42.889Z,70.58
2023-02-28T01:23:52.960Z,70.58
2023-02-28T01:24:03.009Z,70.58
2023-02-28T01:24:13.060Z,70.58
2023-02-28T01:24:23.120Z,70.68
2023-02-28T01:24:34.436Z,70.68
2023-02-28T01:24:43.241Z,70.68
2023-02-28T01:24:53.300Z,70.68
2023-02-28T01:25:03.359Z,70.68
2023-02-28T01:25:13.428Z,70.72
2023-02-28T01:25:23.587Z,70.72
2023-02-28T01:25:33.544Z,70.72
2023-02-28T01:25:43.639Z,70.82
2023-02-28T01:25:53.705Z,70.82
2023-02-28T01:26:03.749Z,70.82
2023-02-28T01:26:13.796Z,70.82
2023-02-28T01:26:23.852Z,70.92
2023-02-28T01:26:33.899Z,70.92
2023-02-28T01:26:43.941Z,70.92
2023-02-28T01:26:53.989Z,70.92
2023-02-28T01:27:04.050Z,70.92
2023-02-28T01:27:14.109Z,70.92
2023-02-28T01:27:24.168Z,70.92
2023-02-28T01:27:34.229Z,71.03
2023-02-28T01:27:44.280Z,71.03
2023-02-28T01:27:54.329Z,71.03
2023-02-28T01:28:04.450Z,71.03
2023-02-28T01:28:14.507Z,71.03
2023-02-28T01:28:24.564Z,71.03
2023-02-28T01:28:34.608Z,71.03
2023-02-28T01:28:44.776Z,71.13
2023-02-28T01:28:54.823Z,71.13
2023-02-28T01:29:04.901Z,71.13
2023-02-28T01:29:14.948Z,71.13
2023-02-28T01:29:25.043Z,71.13
2023-02-28T01:29:35.088Z,71.13
2023-02-28T01:29:45.151Z,71.13
2023-02-28T01:29:55.200Z,71.13
2023-02-28T01:30:05.268Z,71.13
2023-02-28T01:30:15.388Z,71.13
2023-02-28T01:30:25.455Z,71.13
2023-02-28T01:30:35.523Z,71.13
2023-02-28T01:30:45.597Z,71.13
2023-02-28T01:30:55.704Z,71.13
2023-02-28T01:31:05.855Z,71.13
2023-02-28T01:31:15.979Z,71.13
2023-02-28T01:31:26.142Z,71.13
2023-02-28T01:31:36.120Z,71.13
2023-02-28T01:31:46.234Z,71.13
2023-02-28T01:31:56.335Z,71.13
2023-02-28T01:32:06.498Z,71.13
2023-02-28T01:32:16.581Z,71.13
2023-02-28T01:32:26.660Z,71.13
2023-02-28T01:32:36.738Z,71.13
2023-02-28T01:32:46.798Z,71.13
2023-02-28T01:32:56.858Z,71.13
2023-02-28T01:33:06.926Z,71.13
2023-02-28T01:33:16.970Z,71.13
2023-02-28T01:33:27.047Z,71.13
2023-02-28T01:33:37.196Z,71.13
2023-02-28T01:33:47.240Z,71.13
2023-02-28T01:33:57.307Z,71.13
2023-02-28T01:34:07.358Z,71.13
2023-02-28T01:34:17.408Z,71.13
2023-02-28T01:34:27.466Z,71.13
2023-02-28T01:34:37.553Z,71.13
2023-02-28T01:34:47.605Z,71.13
2023-02-28T01:34:57.678Z,71.13
2023-02-28T01:35:07.759Z,71.13
2023-02-28T01:35:17.809Z,71.13
2023-02-28T01:35:27.875Z,71.13
2023-02-28T01:35:37.976Z,71.03
2023-02-28T01:35:48.119Z,71.03
2023-02-28T01:35:58.268Z,71.03
2023-02-28T01:36:08.378Z,71.03
2023-02-28T01:36:18.478Z,71.03
2023-02-28T01:36:28.535Z,71.03
2023-02-28T01:36:38.589Z,71.03
2023-02-28T01:36:48.655Z,71.03
2023-02-28T01:36:58.705Z,70.92
2023-02-28T01:37:08.778Z,70.92
2023-02-28T01:37:18.850Z,70.92
2023-02-28T01:37:28.908Z,70.92
2023-02-28T01:37:38.946Z,70.92
2023-02-28T01:37:49.020Z,70.92
2023-02-28T01:38:06.839Z,70.92
2023-02-28T01:38:21.661Z,70.92
2023-02-28T01:38:22.964Z,70.92
2023-02-28T01:38:31.015Z,70.92
2023-02-28T01:38:41.074Z,70.92
2023-02-28T01:38:51.127Z,70.92
2023-02-28T01:39:01.194Z,70.92
2023-02-28T01:39:11.244Z,70.92
2023-02-28T01:39:21.296Z,71.03
2023-02-28T01:39:31.342Z,71.03
2023-02-28T01:39:41.385Z,71.03
2023-02-28T01:39:51.436Z,71.03
2023-02-28T01:40:01.471Z,71.03
2023-02-28T01:40:11.505Z,71.03
2023-02-28T01:40:21.564Z,71.03
2023-02-28T01:40:31.613Z,71.03
2023-02-28T01:40:41.664Z,71.03
2023-02-28T01:40:51.805Z,71.03
2023-02-28T01:41:01.730Z,71.03
2023-02-28T01:41:11.803Z,71.03
2023-02-28T01:41:21.849Z,71.03
2023-02-28T01:41:32.177Z,71.03
2023-02-28T01:41:42.055Z,71.03
2023-02-28T01:41:52.150Z,71.03
2023-02-28T01:42:02.223Z,71.03
2023-02-28T01:42:12.284Z,71.03
2023-02-28T01:42:22.343Z,71.03
2023-02-28T01:42:32.400Z,71.03
2023-02-28T01:42:42.432Z,71.03
2023-02-28T01:42:52.481Z,70.92
2023-02-28T01:43:02.545Z,70.92
2023-02-28T01:43:12.582Z,70.92
2023-02-28T01:43:22.691Z,70.92
2023-02-28T01:43:32.740Z,70.92
2023-02-28T01:43:42.814Z,70.92
2023-02-28T01:43:52.852Z,70.92
2023-02-28T01:44:02.893Z,70.92
2023-02-28T01:44:12.950Z,70.92
2023-02-28T01:44:23.015Z,70.92
2023-02-28T01:44:33.065Z,70.92
2023-02-28T01:44:43.121Z,70.92
2023-02-28T01:44:53.166Z,71.03
2023-02-28T01:45:03.232Z,71.03
2023-02-28T01:45:13.281Z,71.03
2023-02-28T01:45:23.322Z,71.03
2023-02-28T01:45:33.372Z,71.03
2023-02-28T01:45:43.411Z,71.13
2023-02-28T01:45:53.463Z,71.13
2023-02-28T01:46:03.538Z,71.13
2023-02-28T01:46:13.688Z,71.13
2023-02-28T01:46:23.771Z,71.13
2023-02-28T01:46:33.866Z,71.13
2023-02-28T01:46:44.051Z,71.13
2023-02-28T01:46:54.063Z,71.13
2023-02-28T01:47:04.151Z,71.13
2023-02-28T01:47:14.204Z,71.13
2023-02-28T01:47:24.252Z,71.23
2023-02-28T01:47:34.348Z,71.23
2023-02-28T01:47:44.392Z,71.23
2023-02-28T01:47:54.441Z,71.23
2023-02-28T01:48:04.499Z,71.23
2023-02-28T01:48:14.552Z,71.23
2023-02-28T01:48:24.622Z,71.23
2023-02-28T01:48:34.672Z,71.23
2023-02-28T01:48:44.721Z,71.23
2023-02-28T01:48:54.784Z,71.23
2023-02-28T01:49:04.832Z,71.23
2023-02-28T01:49:14.884Z,71.34
2023-02-28T01:49:24.940Z,71.34
2023-02-28T01:49:34.990Z,71.23
2023-02-28T01:49:45.043Z,71.34
2023-02-28T01:49:55.120Z,71.23
2023-02-28T01:50:05.171Z,71.23
2023-02-28T01:50:15.230Z,71.23
2023-02-28T01:50:25.279Z,71.23
2023-02-28T01:50:35.329Z,71.23
2023-02-28T01:50:45.380Z,71.23
2023-02-28T01:50:55.439Z,71.23
2023-02-28T01:51:05.503Z,71.23
2023-02-28T01:51:15.540Z,71.23
2023-02-28T01:51:25.590Z,71.23
2023-02-28T01:51:35.667Z,71.23
2023-02-28T01:51:45.704Z,71.23
2023-02-28T01:51:55.805Z,71.13
2023-02-28T01:52:05.769Z,71.13
2023-02-28T01:52:15.819Z,71.13
2023-02-28T01:52:25.895Z,71.13
2023-02-28T01:52:35.930Z,71.13
2023-02-28T01:52:45.968Z,71.13
2023-02-28T01:52:55.999Z,71.13
2023-02-28T01:53:06.047Z,71.13
2023-02-28T01:53:16.099Z,71.13
2023-02-28T01:53:26.152Z,71.13
2023-02-28T01:53:36.208Z,71.23
2023-02-28T01:53:46.245Z,71.23
2023-02-28T01:53:56.322Z,71.23
2023-02-28T01:54:06.377Z,71.23
2023-02-28T01:54:16.428Z,71.23
2023-02-28T01:54:26.497Z,71.23
2023-02-28T01:54:36.541Z,71.23
2023-02-28T01:54:46.582Z,71.23
2023-02-28T01:54:56.618Z,71.23
2023-02-28T01:55:06.668Z,71.23
2023-02-28T01:55:16.728Z,71.23
2023-02-28T01:55:26.768Z,71.23
2023-02-28T01:55:36.816Z,71.13
2023-02-28T01:55:46.868Z,71.13
2023-02-28T01:55:56.921Z,71.13
2023-02-28T01:56:06.964Z,71.13
2023-02-28T01:56:17.008Z,71.13
2023-02-28T01:56:27.095Z,71.13
2023-02-28T01:56:37.143Z,71.13
2023-02-28T01:56:47.199Z,71.13
2023-02-28T01:56:57.251Z,71.13
2023-02-28T01:57:07.330Z,71.13
2023-02-28T01:57:17.396Z,71.13
2023-02-28T01:57:27.454Z,71.13
2023-02-28T01:57:37.500Z,71.23
2023-02-28T01:57:47.560Z,71.23
2023-02-28T01:57:57.619Z,71.23
2023-02-28T01:58:07.657Z,71.23
2023-02-28T01:58:17.717Z,71.23
2023-02-28T01:58:27.809Z,71.13
2023-02-28T01:58:37.836Z,71.13
2023-02-28T01:58:47.883Z,71.13
2023-02-28T01:58:57.930Z,71.13
2023-02-28T01:59:07.972Z,71.13
2023-02-28T01:59:18.076Z,71.13
2023-02-28T01:59:28.142Z,71.13
2023-02-28T01:59:38.184Z,71.13
2023-02-28T01:59:48.228Z,71.13
2023-02-28T01:59:58.265Z,71.13
2023-02-28T02:00:08.308Z,71.13
2023-02-28T02:00:18.346Z,71.13
2023-02-28T02:00:28.520Z,71.13
2023-02-28T02:00:38.628Z,71.13
2023-02-28T02:00:48.669Z,71.13
2023-02-28T02:00:58.699Z,71.13
2023-02-28T02:01:08.747Z,71.13
2023-02-28T02:01:18.827Z,71.13
2023-02-28T02:01:29.377Z,71.13
2023-02-28T02:01:38.909Z,71.13
2023-02-28T02:01:49.095Z,71.13
2023-02-28T02:01:59.144Z,71.13
2023-02-28T02:02:09.289Z,71.13
2023-02-28T02:02:19.359Z,71.13
2023-02-28T02:02:29.451Z,71.13
2023-02-28T02:02:39.533Z,71.13
2023-02-28T02:02:49.627Z,71.13
2023-02-28T02:02:59.760Z,71.13
2023-02-28T02:03:09.908Z,71.13
2023-02-28T02:03:20.001Z,71.13
2023-02-28T02:03:30.037Z,71.13
2023-02-28T02:03:40.119Z,71.13
2023-02-28T02:03:50.176Z,71.13
2023-02-28T02:04:00.265Z,71.13
2023-02-28T02:04:10.328Z,71.13
2023-02-28T02:04:20.396Z,71.13
2023-02-28T02:04:30.470Z,71.13
2023-02-28T02:04:40.516Z,71.13
2023-02-28T02:04:50.569Z,71.13
2023-02-28T02:05:00.617Z,71.13
2023-02-28T02:05:10.669Z,71.03
2023-02-28T02:05:20.705Z,71.03
2023-02-28T02:05:30.799Z,71.03
2023-02-28T02:05:40.859Z,71.03
2023-02-28T02:05:50.895Z,71.03
2023-02-28T02:06:00.945Z,71.03
2023-02-28T02:06:11.007Z,71.03
2023-02-28T02:06:21.055Z,71.03
2023-02-28T02:06:31.098Z,71.03
2023-02-28T02:06:41.154Z,71.03
2023-02-28T02:06:51.198Z,71.03
2023-02-28T02:07:01.278Z,71.03
2023-02-28T02:07:11.366Z,71.03
2023-02-28T02:07:21.423Z,71.03
2023-02-28T02:07:31.476Z,71.03
2023-02-28T02:07:41.528Z,71.03
2023-02-28T02:07:51.564Z,71.03
2023-02-28T02:08:01.666Z,71.03
2023-02-28T02:08:11.722Z,71.03
2023-02-28T02:08:21.772Z,70.92
2023-02-28T02:08:31.814Z,70.92
2023-02-28T02:08:41.891Z,70.92
2023-02-28T02:08:51.924Z,70.92
2023-02-28T02:09:01.985Z,70.92
2023-02-28T02:09:12.082Z,70.92
2023-02-28T02:09:22.144Z,71.03
2023-02-28T02:09:32.204Z,71.03